Ride Results

Tom Quilty Gold Cup (07-06-1986)
Ride distance: 160.0 km

Outcomes - Tom Quilty Gold Cup (07-06-1986)
Division No. of Entries Retired / DNE Completed Withdrawn Ineligible V/O Percentage Completed
HW 15 - 4 2 3 6 26.67%
MW 46 - 19 5 1 21 41.30%
LW 22 - 10 2 1 9 45.45%
JN 16 - 10 1 - 5 62.50%
Totals 99 - 43 10 5 41 43.43%
Results - Tom Quilty Gold Cup (07-06-1986)
No. Rider Horse Place Time Leg Speeds Total
Km/Hr
H/R bpm
Heavyweight
81 Gordon Flaherty Sharahd Homer 1 15:36:00 11.5, 11.7, 9.0, 9.2 10.26 44, 46, 48, 49, 49 (Avg:48)
99 Peter Barth Warrondi Flynn 2 18:05:00 8.7, 12.1, 8.3, 7.3 8.85 32, 44, 48, 58, 45 (Avg:48)
57 Paul Grieves Gilgalad 3 19:44:00 8.3, 9.2, 8.7, 6.6 8.11 36, 44, 48, 52, 44 (Avg:47)
76 David Nancarrow Redlands Cavalier 4 19:57:00 7.9, 8.7, 6.9, 8.6 8.02 48, 46, 50, 54, 56 (Avg:51)
92 Wayne Brodie Shanandoah Lame L2 0:00:00 6.7, 9.1 - 34, 42, 54 (Avg:48)
16 Trevor Brown Big John Lame L2 0:00:00 9.8, 10.3 - 36, 50, 50 (Avg:50)
51 John Carroll Kalmira Bataal Heart Rate L2 0:00:00 11.7, 12.1 - 40, 50, 70 (Avg:60)
52 Kym Georecke Wolfman Jack Late for Vetting L1 0:00:00 6.6 - 38, 48 (Avg:48)
85 Michael Heffernan Dieselene Widthdrawn L1 0:00:00 - - 28, 50 (Avg:50)
1 John Mcginn Pinnochio Lame L1 0:00:00 9.9 - 32, 44 (Avg:44)
70 Fred Muller Jodys Dabdy Bar Heart Rate L1 0:00:00 8.0 - 36, 60 (Avg:60)
15 Kingsly Pond King O'clubs Late for Vetting L1 0:00:00 6.1 - 0
69 Rex Telford Casper Heart Rate L1 0:00:00 10.6 - 32, 72 (Avg:72)
95 Bob Westgarth Iraki Amaal Late for Vetting L1 0:00:00 6.6 - 32
46 Michael Menzel Warrondi Blue Dax Widthdrawn P/R 0:00:00 - - 38
Middleweight
55 Jenny Oliver Glenallan Soloman 1 (BC) 12:42:00 13.8, 15.6, 11.5, 10.5 12.60 40, 50, 54, 56, 53 (Avg:53)
75 Louise Lewis Girlseem 2 14:21:00 11.7, 14.2, 9.9, 9.6 11.15 35, 44, 52, 52, 60 (Avg:52)
62 Kevin Bohm Kelkette Park Izak 3 14:59:00 11.8, 14.3, 9.9, 8.3 10.68 32, 48, 48, 58, 48 (Avg:50)
60 Paul Krahnen Pancho 4 15:36:00 13.3, 11.9, 8.6, 8.6 10.26 40, 45, 50, 52, 52 (Avg:49)
66 Julie Woods Nijinsky 5 15:52:30 9.8, 11.4, 9.0, 10.2 10.08 26, 50, 42, 51, 48 (Avg:47)
80 Barbara Macdonald Kelly 6 16:02:00 11.0, 11.0, 8.6, 9.6 9.98 0
77 Bob Sample Sharahd Abdul 7 16:02:32 11.7, 12.2, 8.0, 9.1 9.97 40, 50, 50, 52, 50 (Avg:50)
90 Jill Ross Warrondi Lignum 8 16:12:10 8.9, 12.1, 9.6, 9.3 9.87 42, 50, 50, 53, 46 (Avg:49)
29 Georgie Ross Warrondi Spinifex 9 16:12:14 8.7, 12.4, 9.6, 9.3 9.87 36, 50, 42, 47, 44 (Avg:45)
67 Sue Parsons Karumba Travellers Joy 10 16:28:00 8.7, 12.2, 9.0, 9.5 9.72 30, 40, 46, 52, 48 (Avg:46)
68 Sally Holmes Onegin 11 16:28:01 8.7, 12.2, 9.0, 9.5 9.72 30, 42, 50, 54, 48 (Avg:48)
7 Wayne Francis Diamond 12 19:17:00 8.2, 9.6, 8.5, 7.1 8.30 38, 40, 48, 40, 42 (Avg:42)
5 Jack Boswell Rajah 13 19:17:02 8.6, 10.6, 7.8, 6.8 8.30 24, 48, 42, 52, 40 (Avg:45)
12 Barbara Mason Toby 14 19:50:00 9.4, 10.4, 7.0, 6.5 8.07 32, 48, 54, 51, 44 (Avg:49)
11 Jeff Littledike Warrondi Fadua 15 19:53:00 6.6, 10.3, 7.2, 8.9 8.05 32, 44, 42, 40, 48 (Avg:43)
30 Terry Scott Warrondi Feu-Dor 16 19:54:00 7.1, 9.1, 7.2, 8.9 8.04 30, 40, 48, 52, 46 (Avg:46)
31 Leah Johnstone Red Ned 17 19:59:00 7.2, 8.4, 7.5, 8.8 8.01 34, 48, 52, 52, 48 (Avg:50)
4 Sue Newton-Hoare Maroo Rainbow 18 19:59:02 7.2, 8.4, 7.5, 8.8 8.01 36, 50, 48, 50, 48 (Avg:49)
26 Ruth Bavistock Milk Chocolate 19 20:00:00 6.7, 9.1, 7.5, 9.0 8.00 38, 46, 54, 50, 50 (Avg:50)
65 Pauline Fletcher (Heffernan) Ned Lame L4 0:00:00 11.8, 16.2, 9.9, 10.0 - 36, 48, 54, 54, 46 (Avg:50)
82 Matthew Krahnen Thunder Lame L4 0:00:00 13.3, 11.9, 8.6, 9.0 - 36, 48, 49, 50, 53 (Avg:50)
84 Garry Lewis Franchesca Lame L4 0:00:00 9.4, 11.9, 9.0, 10.3 - 30, 48, 48, 47, 47 (Avg:47)
73 Graeme Seath Deek Lame L4 0:00:00 7.5, 11.0, 8.7, 6.8 - 36, 44, 42, 45, 48 (Avg:44)
50 Madeleine Brennan Banty Boy Lame L3 0:00:00 7.1, 9.1, 7.2 - 34, 50, 58, 60 (Avg:56)
10 Lorraine Muller Wagga Countdeck Widthdrawn L3 0:00:00 - - 32, 48, 46, 50 (Avg:48)
79 June Petersen Musket Widthdrawn L3 0:00:00 - - 34, 44, 44, 56 (Avg:48)
34 Chris Vaughan Palseem Heart Rate L3 0:00:00 11.7, 14.3, 9.9 - 42, 50, 52, 73 (Avg:58)
37 Tim Whyte Warrondi Ishrah Heart Rate L3 0:00:00 8.7, 12.4, 8.2 - 32, 40, 42, 68 (Avg:50)
72 Randy Cowan Red Heart Rate L2 0:00:00 10.7, 12.3 - 52, 42, 64 (Avg:53)
89 Geoff Grummitt Blondy Widthdrawn L2 0:00:00 - - 50, 50, 58 (Avg:54)
88 Janne Harris Bedazzled Lame L2 0:00:00 11.5, 10.9 - 35, 50, 50 (Avg:50)
19 Kay Milton Red Feather Widthdrawn L2 0:00:00 - - 35, 42, 54 (Avg:48)
63 Frank Mollema Benjie Widthdrawn L2 0:00:00 - - 36, 48, 48 (Avg:48)
44 Donald Williams Warrondi Emily Heart Rate L2 0:00:00 7.6, 10.3 - 38, 48, 72 (Avg:60)
97 Claude Filleul Jay = Bra.04564 Heart Rate L1 0:00:00 8.3 - 40, 60 (Avg:60)
94 Bernie Harris Stormy Lame L1 0:00:00 11.1 - 38, 50 (Avg:50)
23 Fran Howitt Montevideo Cracker Lame L1 0:00:00 11.0 - 38, 50 (Avg:50)
61 Patsie Manning Juanita Lame L1 0:00:00 9.2 - 34, 38 (Avg:38)
42 Ross Pitman Unkle Ned Heart Rate L1 0:00:00 7.6 - 36, 68 (Avg:68)
47 Kathy Polden Crystal Lame L1 0:00:00 7.5 - 40, 48 (Avg:48)
27 Craig Ryhorchuk Lancer's Wanpan Heart Rate L1 0:00:00 8.4 - 50, 62 (Avg:62)
17 Dick Shillabeer Taragon Heart Rate L1 0:00:00 7.9 - 34, 60 (Avg:60)
2 Wally Webb Musty Lame L1 0:00:00 13.0 - 32, 50 (Avg:50)
48 Sue Westgarth Saffryn Late for Vetting L1 0:00:00 6.6 - 28
58 Terry Wood Andarra Shareef Lame P/R 0:00:00 - - 0
59 Terry Wood Tiki Lame P/R 0:00:00 - - 52
Lightweight
83 Scott Hill Craig Darroch Rhaedar 1 14:29:15 11.7, 14.2, 9.9, 9.3 11.04 40, 50, 54, 52, 48 (Avg:51)
71 Sally Cowan Junior 2 (BC) 14:36:00 10.7, 12.3, 9.9, 11.1 10.96 44, 43, 43, 44, 42 (Avg:43)
21 Lynette Wells Tarrendene Tessa 3 16:02:33 11.1, 10.8, 8.6, 9.6 9.97 36, 48, 48, 54, 48 (Avg:49)
20 Sandy Ross Ocelot 4 16:12:12 8.9, 12.1, 9.6, 9.3 9.87 38, 54, 48, 52, 51 (Avg:51)
25 Marianne Van der Ham Rockybar Trelissa 5 18:05:00 9.4, 11.0, 9.0, 6.8 8.85 33, 48, 48, 58, 46 (Avg:50)
32 Janelle Hanna Dandaringa Target 6 18:48:00 7.6, 11.0, 8.3, 7.7 8.51 36, 50, 42, 53, 58 (Avg:50)
8 Jenny Van den Akker Jimmy 7 19:50:00 9.4, 10.4, 7.0, 6.5 8.07 34, 50, 54, 56, 56 (Avg:54)
93 Jan Cowell Nobbie 8 19:52:02 7.9, 9.8, 8.3, 6.6 8.05 39, 44, 42, 46, 44 (Avg:44)
49 Alexander Hanna Havilah Mary Magdelaine 9 19:54:00 7.4, 9.6, 8.0, 7.3 8.04 34, 52, 44, 47, 48 (Avg:47)
64 Gillian Ryhorchuk Lansdown Crystal Bright 10 19:58:00 7.7, 8.6, 6.9, 9.0 8.01 38, 48, 52, 52, 58 (Avg:52)
56 Kerry-Anne Mcgufficke Calamity Lame L4 0:00:00 13.7, 13.6, 9.9, 10.3 - 30, 48, 46, 49, 53 (Avg:49)
98 Jennie Stafford Glenleigh Shylo Lame L4 0:00:00 8.3, 9.2, 8.7, 6.5 - 35, 52, 48, 46, 46 (Avg:48)
91 Jil Bourton C-B Heart Rate L3 0:00:00 11.6, 9.2, 8.1 - 34, 52, 54, 68 (Avg:58)
53 Meryl Gepp Zha Zha Widthdrawn L3 0:00:00 - - 38, 45, 50, 57 (Avg:50)
86 Jess Shillabeer Yarnspinner Heart Rate L3 0:00:00 7.9, 9.7, 7.0 - 24, 50, 50, 62 (Avg:54)
43 Vicky Cooper Avanzada Angelika Widthdrawn L2 0:00:00 - - 34, 48, 56 (Avg:52)
28 Maxine Hazel Broomhilda Heart Rate L2 0:00:00 8.0, 9.7 - 32, 52, 66 (Avg:59)
35 Louise Shipton Huey Lame L2 0:00:00 6.7, 10.6 - 34, 40, 40 (Avg:40)
14 Sandra Simpson Diablo Heart Rate L2 0:00:00 10.6, 11.3 - 32, 50, 78 (Avg:64)
18 Mavis Lockwood Tomahawk Decon Rivers Heart Rate L1 0:00:00 7.2 - 42, 68 (Avg:68)
96 Pauline Birnie Macarda Miss Late for Vetting P/R 0:00:00 - - 30
3 Steven Wyld Canna Park Raffles Lame P/R 0:00:00 - - 36
Junior
78 Brook Sample Sharahd Melodie 1 14:29:20 11.7, 14.2, 10.0, 9.2 11.04 38, 45, 45, 54, 54 (Avg:49)
74 Rachel Bohm Silver Ibn Zarak 2 14:59:00 11.8, 14.3, 9.9, 8.3 10.68 34, 48, 48, 54, 46 (Avg:49)
6 Cherie Cowan Dan 3 16:22:00 10.7, 12.3, 8.6, 8.3 9.78 42, 48, 48, 44, 45 (Avg:46)
39 Robert Benson Yagoona Kate 4 18:26:00 8.8, 12.1, 7.0, 8.0 8.68 52, 38, 46, 52, 46 (Avg:45)
24 Dominic Krahnen Pinto 5 18:33:00 13.3, 11.9, 6.7, 6.3 8.63 38, 50, 52, 54, 46 (Avg:50)
36 Stephen Brinkworth Paladin Sayyid 6 18:47:00 8.8, 12.1, 7.1, 7.4 8.52 36, 44, 52, 51, 44 (Avg:47)
9 Alexa Ryhorchuk Benji 7 19:57:00 7.7, 8.6, 6.9, 9.0 8.02 40, 42, 54, 50, 48 (Avg:48)
45 Kate Saunders Banjo 7 19:57:00 7.1, 10.3, 6.7, 8.6 8.02 28, 40, 36, 36, 44 (Avg:39)
40 Christine Bavistock Skye 9 19:58:00 6.7, 9.1, 7.5, 9.0 8.01 38, 44, 58, 54, 56 (Avg:53)
33 Penny Tyrrell Gunderman Marim 10 19:59:00 6.7, 9.1, 7.5, 9.0 8.01 40, 50, 48, 55, 53 (Avg:51)
54 Wendy Barth Grease Heart Rate L3 0:00:00 8.7, 11.9, 8.3 - 36, 50, 52, 77 (Avg:59)
87 Bronya Kennedy Lucifer Heart Rate L2 0:00:00 8.6, 12.0 - 33, 50, 72 (Avg:61)
13 Kerrie Gabb Jitsu Lame L1 0:00:00 10.7 - 36, 48 (Avg:48)
41 Melody Keegan Moonfleet Lame L1 0:00:00 8.6 - 38, 50 (Avg:50)
38 Robert Benson Grey Sovereign Widthdrawn P/R 0:00:00 - - 32
22 Mandy Whidbourne Sandrell's Dream Lame P/R 0:00:00 - - 30